Airfield :
LOGIN :

Register | Disclaimer

   EN    FR    IT 

 










Legend :    VFR   Marginal VFR   IFR   Intensive IFR   Very Intensive IFR
Visi :
Ceiling :
>= 8 km
>= 3000ft
5 to 8 km
1000 to 3000 ft
1500m to 5 km
500 to 1000 ft
800 to 1500m
200 to 500 ft
< 800m
< 200 ft
Symbols :   Thunderstorms  Fog  Heavy snow  Heavy precipitations  Wind > 20 kt
SIGMETs :     Misc.  Thunderstorms  Icing  Turbulence  Mountain Waves  Volcanic Ashes







- Airport Elevation : 87 ft
- IATA code : FSC
- Download approach charts


LFKF - Figari

CURRENT METAR :
  • 190630Z AUTO 00000KT 9999 NSC 22/19 Q1014 BECMG 22010KT

EXPIRED METARs :
  • 190600Z AUTO VRB01KT 9999 VV/// 20/19 Q1014 TEMPO 0200 FG BECMG NSC
  • 190530Z AUTO 00000KT 0550 0250 R23/0900U R05/0400U FG VV/// 18/18 Q1014 BECMG 22010KT CAVOK
  • 190500Z AUTO 05001KT 0200 0150 R23/0225N R05/M0200U FG VV/// 18/17 Q1014 BECMG CAVOK
  • 190430Z AUTO VRB01KT 0300 0150 R23/0350N R05/M0200 FG VV/// 17/16 Q1014 BECMG CAVOK
  • 190400Z AUTO VRB02KT 0400 0300 R23/0350N R05/0350D FG VV/// 17/16 Q1014 TEMPO 0800 FG BKN004

TAF AMD TAF LFKF
Valid from the 19 at 05:00 until the 20 at 03:00 UTC


190520Z 1905/2003 04004KT CAVOK
PROB40
TEMPO 1905/1907 0200 FG BKN004
BECMG 1907/1910 22010KT
BECMG 1919/1922 04004KT
TEMPO 1921/2003 BKN010
No reported NOTAMs for that airfield.



MET'MAP, your aeronautical weather chart ! - Copyright ORBIFLY December 2007 - Disclaimer

ORBIFLY MET'MAP TEAM :

Programming & Development : Alexandra Zaïnal
Concept & Development : Baudouin d'Aumeries
Co-Development & Prog : Marc-Olivier Méhu
Technical & hardware support : Manuel Goepfert

Contact : metmap@orbifly.com




SOURCES & CREDITS :

   NOAA